Terminal Aerodrome Forecast
Issued by NWS Sioux Falls, SD

Home | Current Version | Previous Version | Graphics & Text | Print | Product List | Glossary On
Versions: 1 2 3 4 5 6 7 8 9 10 11 12 13 14 15
718
FTUS43 KFSD 132340
TAFHON
TAF
KHON 132340Z 1400/1424 35007KT P6SM FEW035
     FM140900 VRB03KT 3SM BR FEW020
     FM141000 32004KT 1SM BR FEW010
     FM141400 36006KT 4SM BR SCT015
     FM141500 36006KT P6SM SCT030
     FM141700 04006KT P6SM FEW200=

USA.gov is the U.S. government's official web portal to all federal, state and local government web resources and services.